Time;durP1;ratioP1;P1;durP2;ratioP2;P2;SDS_P1;SDS_P2;PMS_P1;PMS_P2;Temp;Humidity;BMP_temperature;BMP_pressure;BME280_temperature;BME280_humidity;BME280_pressure;Samples;Min_cycle;Max_cycle;Signal;HPM_P1;HPM_P2
2022/08/01 00:00:07;;;;;;;1.33;1.23;;;24.30;58.30;25.10;96445.00;;;;5074606;28;20201;-84
2022/08/01 00:02:34;;;;;;;1.20;1.10;;;24.30;58.20;25.20;96445.00;;;;5074865;28;20225;-84
2022/08/01 00:05:01;;;;;;;1.13;1.13;;;24.40;58.20;25.20;96452.00;;;;5073766;28;20191;-84
2022/08/01 00:07:29;;;;;;;1.23;1.17;;;24.40;58.80;25.20;96445.00;;;;5074432;28;20237;-84
2022/08/01 00:09:56;;;;;;;1.40;1.20;;;24.40;58.10;25.20;96442.00;;;;5074980;28;20592;-84
2022/08/01 00:12:24;;;;;;;1.27;1.17;;;24.40;58.00;25.30;96441.00;;;;5094642;28;20824;-84
2022/08/01 00:14:52;;;;;;;1.40;1.30;;;24.50;58.00;25.30;96443.00;;;;5093930;28;20228;-85
2022/08/01 00:17:19;;;;;;;1.13;1.10;;;24.50;57.90;25.30;96440.00;;;;5065294;28;20238;-84
2022/08/01 00:19:46;;;;;;;1.20;1.20;;;24.50;57.80;25.30;96448.00;;;;5053636;28;20571;-85
2022/08/01 00:22:13;;;;;;;1.43;1.20;;;24.50;57.80;25.30;96447.00;;;;5057062;28;20232;-84
2022/08/01 00:24:40;;;;;;;1.10;1.10;;;24.50;57.70;25.30;96453.00;;;;5072861;28;20230;-87
2022/08/01 00:27:07;;;;;;;1.03;1.03;;;24.50;57.70;25.30;96447.00;;;;5072771;28;20863;-84
2022/08/01 00:29:36;;;;;;;1.30;1.20;;;24.50;57.70;25.20;96443.00;;;;5073132;28;20240;-84
2022/08/01 00:32:04;;;;;;;1.87;1.20;;;24.50;57.70;25.20;96442.00;;;;5083698;28;20729;-85
2022/08/01 00:34:31;;;;;;;1.13;1.13;;;24.50;57.60;25.20;96450.00;;;;5077032;28;20239;-84
2022/08/01 00:36:58;;;;;;;2.43;1.37;;;24.50;57.70;25.20;96443.00;;;;5072827;28;20242;-85
2022/08/01 00:39:25;;;;;;;1.00;1.00;;;24.50;57.60;25.20;96439.00;;;;5073046;28;20288;-84
2022/08/01 00:41:52;;;;;;;1.20;1.10;;;24.50;57.70;25.20;96439.00;;;;5107496;22;20258;-87
2022/08/01 00:44:20;;;;;;;1.10;1.00;;;24.50;57.60;25.10;96438.00;;;;5092090;28;20225;-87
2022/08/01 00:46:48;;;;;;;1.30;1.13;;;24.50;57.60;25.10;96447.00;;;;5091597;28;20703;-87
2022/08/01 00:49:15;;;;;;;1.30;1.20;;;24.50;57.70;25.10;96436.00;;;;5091997;28;20237;-87
2022/08/01 00:51:42;;;;;;;1.20;1.20;;;24.50;57.60;25.10;96438.00;;;;5082801;28;20217;-86
2022/08/01 00:54:11;;;;;;;2.27;1.33;;;24.50;57.60;25.10;96439.00;;;;5084222;28;20334;-87
2022/08/01 00:56:38;;;;;;;1.30;1.20;;;24.40;57.50;25.10;96442.00;;;;5087407;28;20286;-88
2022/08/01 00:59:06;;;;;;;1.47;1.27;;;24.40;57.50;25.10;96442.00;;;;5078645;28;20190;-87
2022/08/01 01:01:34;;;;;;;1.10;1.10;;;24.40;57.50;25.10;96446.00;;;;5090003;28;20227;-87
2022/08/01 01:04:03;;;;;;;1.27;1.00;;;24.40;57.50;25.10;96439.00;;;;5076883;28;20717;-86
2022/08/01 01:06:44;;;;;;;2.13;1.13;;;24.40;57.40;25.10;96441.00;;;;5081323;28;20316;-87
2022/08/01 01:09:33;;;;;;;1.20;1.10;;;24.40;57.30;25.10;96438.00;;;;5081279;28;20201;-87
2022/08/01 01:12:16;;;;;;;1.20;1.10;;;24.40;57.90;25.00;96443.00;;;;5077962;28;20247;-86
2022/08/01 01:14:55;;;;;;;1.27;1.20;;;24.40;57.30;25.00;96434.00;;;;5089777;28;20237;-84
2022/08/01 01:17:38;;;;;;;1.17;0.97;;;24.40;57.20;25.00;96442.00;;;;5078640;28;20227;-87
2022/08/01 01:20:11;;;;;;;1.70;1.10;;;24.40;57.20;25.00;96433.00;;;;5091535;28;20191;-88
2022/08/01 01:23:13;;;;;;;1.03;1.00;;;24.30;57.20;25.00;96440.00;;;;5090955;28;20224;-87
2022/08/01 01:26:17;;;;;;;1.07;0.80;;;24.30;57.30;24.90;96443.00;;;;5091208;28;20588;-88
2022/08/01 01:29:14;;;;;;;1.23;1.10;;;24.30;57.30;24.90;96445.00;;;;5082494;28;20257;-88
2022/08/01 01:31:48;;;;;;;1.03;1.00;;;24.30;57.30;24.90;96449.00;;;;5090773;28;20289;-87
2022/08/01 01:34:21;;;;;;;1.23;1.20;;;24.30;57.20;24.80;96444.00;;;;5091988;28;20218;-88
2022/08/01 01:36:51;;;;;;;1.57;1.10;;;24.20;57.10;24.80;96445.00;;;;5091413;28;20227;-87
2022/08/01 01:39:21;;;;;;;1.20;1.10;;;24.20;57.30;24.80;96439.00;;;;5091578;28;20235;-87
2022/08/01 01:41:51;;;;;;;0.93;0.93;;;24.20;57.30;24.80;96438.00;;;;5091516;28;20292;-88
2022/08/01 01:44:20;;;;;;;1.30;1.20;;;24.20;57.30;24.70;96440.00;;;;5090936;28;20261;-88
2022/08/01 01:46:52;;;;;;;1.00;1.00;;;24.20;57.90;24.70;96445.00;;;;5085719;28;20279;-86
2022/08/01 01:49:23;;;;;;;1.23;1.23;;;24.10;57.30;24.70;96435.00;;;;5087821;28;20220;-87
2022/08/01 01:51:54;;;;;;;0.90;0.90;;;24.10;57.40;24.70;96439.00;;;;5090484;28;20732;-87
2022/08/01 01:54:23;;;;;;;2.57;1.33;;;24.00;57.40;24.60;96438.00;;;;5071207;28;20239;-86
2022/08/01 01:56:52;;;;;;;1.30;1.23;;;24.00;57.40;24.60;96437.00;;;;5071285;28;20284;-88
2022/08/01 01:59:26;;;;;;;1.00;1.00;;;24.00;57.40;24.60;96443.00;;;;5083302;28;20233;-88
2022/08/01 02:01:57;;;;;;;2.97;1.20;;;24.00;57.50;24.60;96432.00;;;;5090816;28;20243;-86
2022/08/01 02:04:27;;;;;;;1.57;1.27;;;24.00;57.50;24.60;96443.00;;;;5090722;28;20292;-87
2022/08/01 02:06:56;;;;;;;1.23;1.23;;;23.90;57.50;24.60;96444.00;;;;5071254;28;20189;-88
2022/08/01 02:09:27;;;;;;;1.17;1.00;;;23.90;57.60;24.50;96445.00;;;;5071134;28;20250;-87
2022/08/01 02:11:56;;;;;;;1.30;1.20;;;23.90;57.60;24.50;96447.00;;;;5071217;28;20217;-87
2022/08/01 02:14:27;;;;;;;2.17;1.37;;;23.90;57.60;24.50;96458.00;;;;5070901;28;20228;-87
2022/08/01 02:16:58;;;;;;;1.30;1.20;;;23.90;57.70;24.40;96446.00;;;;5089296;28;20202;-87
2022/08/01 02:19:27;;;;;;;2.47;1.60;;;23.80;57.70;24.40;96460.00;;;;5091419;28;20197;-89
2022/08/01 02:22:01;;;;;;;1.10;1.10;;;23.80;57.70;24.40;96453.00;;;;5090873;28;20215;-88
2022/08/01 02:24:37;;;;;;;1.30;1.20;;;23.80;57.80;24.40;96452.00;;;;5091684;28;20215;-89
2022/08/01 02:27:11;;;;;;;1.17;1.17;;;23.80;57.90;24.30;96452.00;;;;5093338;28;20172;-87
2022/08/01 02:29:45;;;;;;;1.30;1.20;;;23.70;58.40;24.30;96458.00;;;;5095564;28;20271;-86
2022/08/01 02:32:21;;;;;;;1.40;1.30;;;23.70;57.90;24.30;96465.00;;;;5098267;28;20243;-88
2022/08/01 02:34:53;;;;;;;3.43;1.20;;;23.70;57.90;24.30;96459.00;;;;5095522;28;20643;-88
2022/08/01 02:37:22;;;;;;;1.33;1.27;;;23.70;58.00;24.20;96461.00;;;;5095523;28;20633;-88
2022/08/01 02:39:53;;;;;;;1.87;1.30;;;23.60;58.00;24.20;96468.00;;;;5094498;28;20281;-89
2022/08/01 02:42:23;;;;;;;2.20;1.20;;;23.60;58.00;24.20;96452.00;;;;5094860;28;20254;-88
2022/08/01 02:44:54;;;;;;;1.27;1.20;;;23.60;58.00;24.20;96459.00;;;;5094842;28;20239;-88
2022/08/01 02:47:24;;;;;;;0.97;0.97;;;23.60;58.10;24.10;96455.00;;;;5095084;28;20206;-87
2022/08/01 02:49:53;;;;;;;1.30;1.20;;;23.50;58.00;24.10;96459.00;;;;5094511;28;20231;-88
2022/08/01 02:52:24;;;;;;;1.37;1.30;;;23.50;58.00;24.10;96467.00;;;;5099772;28;20254;-88
2022/08/01 02:54:55;;;;;;;1.90;1.50;;;23.50;58.10;24.10;96459.00;;;;5114847;28;20221;-88
2022/08/01 02:57:25;;;;;;;1.73;1.10;;;23.50;58.20;24.10;96462.00;;;;5097193;28;20279;-87
2022/08/01 02:59:58;;;;;;;1.40;1.30;;;23.50;58.20;24.10;96464.00;;;;5095015;28;20230;-88
2022/08/01 03:02:28;;;;;;;1.90;1.00;;;23.50;58.30;24.00;96467.00;;;;5094441;28;20223;-88
2022/08/01 03:04:58;;;;;;;2.27;1.50;;;23.40;58.30;24.10;96468.00;;;;5094465;28;20251;-88
2022/08/01 03:07:27;;;;;;;1.50;1.40;;;23.40;58.30;24.00;96465.00;;;;5094527;28;20672;-88
2022/08/01 03:09:54;;;;;;;1.60;1.50;;;23.40;58.30;24.00;96461.00;;;;5094466;28;20282;-88
2022/08/01 03:12:28;;;;;;;1.73;1.30;;;23.40;58.30;24.00;96473.00;;;;5093875;28;20241;-88
2022/08/01 03:15:00;;;;;;;1.37;1.27;;;23.40;58.40;24.00;96473.00;;;;5092463;28;20230;-88
2022/08/01 03:17:29;;;;;;;1.47;1.30;;;23.40;58.40;24.00;96480.00;;;;5082148;28;20274;-88
2022/08/01 03:19:59;;;;;;;1.43;1.33;;;23.30;58.30;24.00;96480.00;;;;5073985;28;20345;-88
2022/08/01 03:22:29;;;;;;;1.27;1.27;;;23.30;58.40;24.00;96478.00;;;;5080114;28;20604;-87
2022/08/01 03:25:00;;;;;;;1.73;1.20;;;23.30;58.40;24.00;96471.00;;;;5077164;28;20310;-88
2022/08/01 03:27:28;;;;;;;1.00;1.00;;;23.30;58.40;24.00;96477.00;;;;5090558;28;20249;-88
2022/08/01 03:30:00;;;;;;;1.57;1.20;;;23.30;58.50;24.00;96480.00;;;;5092193;28;20201;-88
2022/08/01 03:32:30;;;;;;;1.30;1.20;;;23.30;58.60;24.00;96480.00;;;;5091998;28;20712;-88
2022/08/01 03:34:58;;;;;;;1.40;1.30;;;23.30;58.60;24.00;96487.00;;;;5093215;28;20184;-88
2022/08/01 03:37:30;;;;;;;0.80;0.80;;;23.30;58.60;24.00;96479.00;;;;5093390;28;20199;-88
2022/08/01 03:40:04;;;;;;;1.37;1.27;;;23.30;58.70;23.90;96494.00;;;;5092870;28;20269;-87
2022/08/01 03:42:37;;;;;;;1.57;1.47;;;23.30;58.60;23.90;96488.00;;;;5093403;28;20711;-88
2022/08/01 03:45:12;;;;;;;1.40;1.30;;;23.30;58.70;23.90;96484.00;;;;5093768;28;20265;-89
2022/08/01 03:47:44;;;;;;;2.27;1.50;;;23.20;58.60;23.90;96493.00;;;;5093769;28;20179;-87
2022/08/01 03:50:15;;;;;;;1.03;1.00;;;23.20;58.50;23.80;96501.00;;;;5092785;28;20202;-88
2022/08/01 03:52:46;;;;;;;1.20;1.10;;;23.20;58.50;23.80;96497.00;;;;5093396;28;20247;-88
2022/08/01 03:55:17;;;;;;;1.47;1.37;;;23.20;58.50;23.80;96493.00;;;;5093029;28;20291;-89
2022/08/01 03:57:46;;;;;;;1.27;1.17;;;23.20;58.50;23.80;96505.00;;;;5093461;28;20665;-88
2022/08/01 04:00:18;;;;;;;1.50;1.40;;;23.20;58.60;23.80;96501.00;;;;5089548;28;20294;-88
2022/08/01 04:02:48;;;;;;;1.53;1.43;;;23.10;58.60;23.70;96503.00;;;;5090898;28;20227;-88
2022/08/01 04:05:16;;;;;;;1.30;1.30;;;23.10;58.60;23.70;96504.00;;;;5085734;28;20243;-88
2022/08/01 04:07:48;;;;;;;1.30;1.20;;;23.10;58.70;23.70;96505.00;;;;5086080;28;20274;-88
2022/08/01 04:10:15;;;;;;;1.27;1.17;;;23.10;58.80;23.70;96503.00;;;;5093450;28;20190;-89
2022/08/01 04:12:42;;;;;;;1.60;1.50;;;23.10;58.80;23.70;96507.00;;;;5092663;28;20272;-88
2022/08/01 04:15:10;;;;;;;1.50;1.40;;;23.10;58.80;23.70;96510.00;;;;5094766;28;20257;-88
2022/08/01 04:17:39;;;;;;;1.10;1.10;;;23.10;58.90;23.70;96514.00;;;;5093360;28;20671;-86
2022/08/01 04:20:07;;;;;;;1.27;1.23;;;23.10;58.90;23.70;96513.00;;;;5079111;28;20585;-84
2022/08/01 04:22:35;;;;;;;1.63;1.17;;;23.10;58.90;23.80;96520.00;;;;5079232;28;20227;-85
2022/08/01 04:25:07;;;;;;;1.87;1.27;;;23.10;58.90;23.80;96530.00;;;;5091896;28;20218;-84
2022/08/01 04:27:42;;;;;;;1.73;1.27;;;23.10;59.00;23.80;96532.00;;;;5092854;28;20199;-85
2022/08/01 04:30:11;;;;;;;1.40;1.30;;;23.10;59.50;23.80;96533.00;;;;5092496;28;20188;-85
2022/08/01 04:32:44;;;;;;;1.53;1.43;;;23.10;59.00;23.80;96538.00;;;;5092692;28;20332;-85
2022/08/01 04:35:17;;;;;;;1.20;1.10;;;23.10;59.00;23.90;96537.00;;;;5092392;28;20278;-85
2022/08/01 04:37:50;;;;;;;1.10;1.10;;;23.10;59.00;23.90;96538.00;;;;5092620;28;20180;-85
2022/08/01 04:40:21;;;;;;;1.10;1.10;;;23.20;59.00;24.00;96539.00;;;;5092812;28;20184;-86
2022/08/01 04:42:50;;;;;;;1.47;1.37;;;23.20;59.00;24.00;96539.00;;;;5076691;28;20213;-87
2022/08/01 04:45:18;;;;;;;1.30;1.20;;;23.20;59.00;24.00;96540.00;;;;5091754;28;20239;-87
2022/08/01 04:47:48;;;;;;;1.40;1.30;;;23.20;59.00;24.00;96550.00;;;;5076241;28;20226;-85
2022/08/01 04:50:15;;;;;;;1.20;1.20;;;23.20;59.10;24.10;96543.00;;;;5092027;28;20191;-85
2022/08/01 04:52:43;;;;;;;1.57;1.47;;;23.30;59.00;24.10;96542.00;;;;5092514;28;20219;-87
2022/08/01 04:55:10;;;;;;;1.63;1.53;;;23.30;59.00;24.10;96545.00;;;;5092989;28;20285;-86
2022/08/01 04:57:43;;;;;;;1.20;1.10;;;23.30;59.00;24.10;96542.00;;;;5091689;28;20302;-86
2022/08/01 05:00:11;;;;;;;2.07;1.40;;;23.30;58.90;24.20;96551.00;;;;5091619;28;20184;-87
2022/08/01 05:02:38;;;;;;;2.40;1.30;;;23.30;58.80;24.20;96555.00;;;;5091957;28;20258;-86
2022/08/01 05:05:10;;;;;;;1.83;1.27;;;23.40;58.90;24.20;96549.00;;;;5071654;28;20657;-86
2022/08/01 05:07:37;;;;;;;2.20;1.60;;;23.40;58.90;24.20;96554.00;;;;5072376;28;20635;-87
2022/08/01 05:10:05;;;;;;;1.63;1.30;;;23.40;58.90;24.20;96558.00;;;;5072256;28;20192;-86
2022/08/01 05:12:33;;;;;;;1.43;1.33;;;23.40;58.80;24.20;96558.00;;;;5075497;28;20298;-86
2022/08/01 05:15:01;;;;;;;1.30;1.20;;;23.40;58.80;24.20;96558.00;;;;5091574;28;20236;-86
2022/08/01 05:17:28;;;;;;;1.20;1.10;;;23.50;58.80;24.30;96562.00;;;;5091817;28;20230;-85
2022/08/01 05:19:55;;;;;;;1.30;1.20;;;23.50;58.80;24.30;96561.00;;;;5091987;28;20837;-86
2022/08/01 05:22:25;;;;;;;1.07;1.00;;;23.50;58.80;24.30;96569.00;;;;5091750;28;20301;-86
2022/08/01 05:24:53;;;;;;;1.10;1.10;;;23.50;58.80;24.30;96568.00;;;;5091415;28;20219;-84
2022/08/01 05:27:20;;;;;;;1.50;1.40;;;23.50;58.90;24.40;96572.00;;;;5091784;28;20692;-85
2022/08/01 05:29:47;;;;;;;1.40;1.10;;;23.60;58.90;24.40;96570.00;;;;5091921;28;20226;-85
2022/08/01 05:32:15;;;;;;;1.13;1.13;;;23.60;58.90;24.40;96566.00;;;;5093800;28;20687;-85
2022/08/01 05:34:42;;;;;;;1.20;1.20;;;23.60;58.70;24.50;96574.00;;;;5094158;28;20277;-86
2022/08/01 05:37:09;;;;;;;1.30;1.20;;;23.60;58.70;24.50;96576.00;;;;5091532;28;20197;-86
2022/08/01 05:39:38;;;;;;;1.10;1.10;;;23.70;58.70;24.50;96582.00;;;;5091890;28;20278;-85
2022/08/01 05:42:05;;;;;;;1.30;1.20;;;23.70;58.70;24.60;96583.00;;;;5090851;28;20270;-85
2022/08/01 05:44:33;;;;;;;1.37;1.20;;;23.70;58.80;24.60;96589.00;;;;5091249;28;20227;-86
2022/08/01 05:47:00;;;;;;;1.30;1.20;;;23.70;58.70;24.60;96591.00;;;;5091309;28;20226;-86
2022/08/01 05:49:27;;;;;;;1.20;1.10;;;23.80;58.70;24.70;96597.00;;;;5091637;28;20680;-85
2022/08/01 05:51:54;;;;;;;1.20;1.10;;;23.80;58.60;24.70;96587.00;;;;5091326;28;20305;-87
2022/08/01 05:54:22;;;;;;;2.07;1.30;;;23.90;58.60;24.70;96596.00;;;;5091380;28;20273;-84
2022/08/01 05:56:50;;;;;;;1.50;1.40;;;23.90;58.50;24.80;96593.00;;;;5082412;28;20232;-84
2022/08/01 05:59:17;;;;;;;1.63;1.10;;;23.90;58.50;24.80;96596.00;;;;5076702;28;20228;-85
2022/08/01 06:01:44;;;;;;;1.40;1.30;;;23.90;58.50;24.80;96594.00;;;;5076827;28;20712;-85
2022/08/01 06:04:11;;;;;;;1.47;1.10;;;23.90;58.40;24.80;96600.00;;;;5075136;28;20256;-85
2022/08/01 06:06:38;;;;;;;1.30;1.20;;;24.00;58.40;24.80;96594.00;;;;5075707;28;20224;-86
2022/08/01 06:09:06;;;;;;;1.30;1.20;;;24.00;58.30;24.80;96599.00;;;;5086334;28;20229;-85
2022/08/01 06:11:33;;;;;;;1.40;1.27;;;24.00;58.20;24.80;96610.00;;;;5087579;28;20293;-85
2022/08/01 06:14:01;;;;;;;1.70;1.60;;;24.00;58.20;24.80;96614.00;;;;5094257;28;20290;-86
2022/08/01 06:16:28;;;;;;;1.40;1.30;;;24.00;58.20;24.70;96609.00;;;;5092541;28;20205;-86
2022/08/01 06:18:56;;;;;;;1.30;1.17;;;24.00;58.10;24.70;96621.00;;;;5093788;28;20334;-84
2022/08/01 06:21:23;;;;;;;1.73;1.30;;;24.00;58.20;24.70;96610.00;;;;5091480;28;20272;-85
2022/08/01 06:23:50;;;;;;;1.10;1.10;;;24.00;58.20;24.70;96611.00;;;;5093845;28;20223;-85
2022/08/01 06:26:19;;;;;;;1.40;1.30;;;24.00;58.30;24.70;96614.00;;;;5093485;28;20199;-84
2022/08/01 06:28:46;;;;;;;1.50;1.30;;;23.90;58.40;24.70;96612.00;;;;5094429;28;20220;-85
2022/08/01 06:31:15;;;;;;;1.47;1.37;;;24.00;58.40;24.70;96613.00;;;;5088816;28;20303;-85
2022/08/01 06:33:42;;;;;;;2.30;1.47;;;23.90;58.50;24.70;96618.00;;;;5089545;28;20204;-85
2022/08/01 06:36:10;;;;;;;1.30;1.20;;;23.90;58.80;24.70;96615.00;;;;5087268;28;20601;-85
2022/08/01 06:38:38;;;;;;;1.77;1.27;;;24.00;58.70;24.80;96618.00;;;;5090751;28;20195;-85
2022/08/01 06:41:05;;;;;;;1.60;1.40;;;24.00;59.20;24.80;96619.00;;;;5108764;22;20224;-86
2022/08/01 06:43:32;;;;;;;3.73;1.37;;;24.00;58.60;24.80;96622.00;;;;5057928;28;20797;-85
2022/08/01 06:45:59;;;;;;;1.83;1.30;;;24.00;58.60;24.80;96618.00;;;;5052945;28;20254;-85
2022/08/01 06:48:28;;;;;;;1.50;1.40;;;24.00;58.70;24.80;96621.00;;;;5055858;28;20251;-81
2022/08/01 06:51:08;;;;;;;1.20;1.10;;;24.00;58.70;24.80;96618.00;;;;5051942;28;20300;-85
2022/08/01 06:53:36;;;;;;;7.53;5.93;;;24.00;58.80;24.80;96625.00;;;;5069291;28;20211;-84
2022/08/01 06:56:04;;;;;;;1.47;1.30;;;24.00;58.90;24.80;96623.00;;;;5061855;28;20210;-84
2022/08/01 06:58:32;;;;;;;1.30;1.20;;;24.10;58.80;24.90;96619.00;;;;5058228;28;20238;-85
2022/08/01 07:00:59;;;;;;;1.20;1.10;;;24.10;58.80;24.90;96626.00;;;;5045730;28;20196;-85
2022/08/01 07:03:28;;;;;;;1.43;1.27;;;24.10;58.90;24.90;96623.00;;;;5049423;28;20246;-85
2022/08/01 07:05:55;;;;;;;1.50;1.40;;;24.20;59.10;25.00;96632.00;;;;5047058;28;20224;-85
2022/08/01 07:08:22;;;;;;;1.30;1.30;;;24.20;58.60;25.10;96621.00;;;;5053007;28;20293;-84
2022/08/01 07:10:49;;;;;;;1.60;1.50;;;24.30;58.60;25.10;96617.00;;;;5053485;28;20229;-85
2022/08/01 07:13:20;;;;;;;1.20;1.10;;;24.30;58.40;25.20;96622.00;;;;5049903;28;20306;-83
2022/08/01 07:15:47;;;;;;;1.33;1.23;;;24.40;58.50;25.30;96626.00;;;;5052557;28;20205;-85
2022/08/01 07:18:15;;;;;;;2.43;1.30;;;24.50;58.70;25.40;96627.00;;;;5051757;28;20290;-85
2022/08/01 07:20:45;;;;;;;1.70;1.30;;;24.60;58.70;25.50;96623.00;;;;5051798;28;20281;-84
2022/08/01 07:23:13;;;;;;;1.20;1.17;;;24.70;58.90;25.70;96623.00;;;;5049588;28;20217;-85
2022/08/01 07:25:40;;;;;;;1.50;1.20;;;24.80;59.10;25.90;96623.00;;;;5049076;28;20315;-86
2022/08/01 07:28:08;;;;;;;2.30;1.27;;;24.90;58.90;26.10;96623.00;;;;5050539;28;20196;-84
2022/08/01 07:30:35;;;;;;;1.67;1.40;;;25.10;58.60;26.30;96629.00;;;;5050881;28;20232;-84
2022/08/01 07:33:03;;;;;;;1.53;1.20;;;25.30;58.50;26.50;96630.00;;;;5049262;28;20585;-84
2022/08/01 07:35:30;;;;;;;1.63;1.30;;;25.40;58.30;26.70;96631.00;;;;5051029;28;20224;-84
2022/08/01 07:37:59;;;;;;;1.20;1.07;;;25.60;58.20;26.90;96625.00;;;;5051669;28;20220;-84
2022/08/01 07:40:26;;;;;;;2.90;1.77;;;25.80;57.90;27.10;96628.00;;;;5044038;28;20189;-84
2022/08/01 07:42:53;;;;;;;1.20;1.20;;;26.00;57.90;27.30;96628.00;;;;5051079;28;20550;-84
2022/08/01 07:45:20;;;;;;;1.30;1.20;;;26.10;57.70;27.50;96625.00;;;;5050055;28;20244;-84
2022/08/01 07:47:49;;;;;;;1.10;1.10;;;26.30;57.50;27.70;96630.00;;;;5051847;28;20231;-83
2022/08/01 07:50:17;;;;;;;1.17;1.17;;;26.50;57.40;27.90;96634.00;;;;5033000;28;20201;-84
2022/08/01 07:52:44;;;;;;;1.33;1.23;;;26.60;57.60;28.00;96627.00;;;;5041391;28;20241;-84
2022/08/01 07:55:13;;;;;;;1.47;1.07;;;26.80;57.40;28.20;96626.00;;;;5045775;28;20198;-84
2022/08/01 07:57:41;;;;;;;1.23;1.13;;;27.00;57.20;28.40;96628.00;;;;5044132;28;20353;-83
2022/08/01 08:00:09;;;;;;;0.97;0.97;;;27.20;57.20;28.60;96635.00;;;;5044598;28;20270;-83
2022/08/01 08:02:36;;;;;;;1.37;1.27;;;27.30;56.50;28.70;96633.00;;;;5040944;28;20328;-84
2022/08/01 08:05:04;;;;;;;1.30;1.20;;;27.50;56.50;28.90;96632.00;;;;5048280;28;20702;-84
2022/08/01 08:07:32;;;;;;;1.67;1.10;;;27.60;56.10;29.00;96625.00;;;;5049743;28;20250;-84
2022/08/01 08:10:00;;;;;;;0.95;0.95;;;27.80;55.90;29.10;96632.00;;;;5047849;28;20579;-84
2022/08/01 08:12:28;;;;;;;1.20;1.10;;;27.90;55.60;29.30;96623.00;;;;5051150;28;20301;-84
2022/08/01 08:15:00;;;;;;;2.40;1.17;;;28.00;55.30;29.40;96633.00;;;;5050671;28;20206;-84
2022/08/01 08:17:27;;;;;;;1.27;1.17;;;28.10;55.00;29.60;96632.00;;;;5048491;28;20197;-84
2022/08/01 08:19:54;;;;;;;0.90;0.90;;;28.30;55.10;29.70;96639.00;;;;5042443;28;20204;-83
2022/08/01 08:22:22;;;;;;;2.67;1.20;;;28.50;55.20;29.90;96632.00;;;;5048960;28;20232;-80
2022/08/01 08:24:49;;;;;;;1.20;1.20;;;28.60;55.00;30.10;96627.00;;;;5048509;28;20315;-83
2022/08/01 08:27:16;;;;;;;1.85;1.33;;;28.70;54.40;30.20;96631.00;;;;5051437;28;20292;-83
2022/08/01 08:29:45;;;;;;;1.05;1.00;;;28.90;54.00;30.40;96626.00;;;;5049871;28;20188;-83
2022/08/01 08:32:12;;;;;;;0.90;0.90;;;29.00;54.10;30.60;96622.00;;;;5050198;28;20304;-84
2022/08/01 08:34:40;;;;;;;1.15;1.10;;;29.20;54.10;30.80;96621.00;;;;5053438;28;20283;-84
2022/08/01 08:37:07;;;;;;;5.05;1.55;;;29.30;54.00;30.90;96629.00;;;;5050694;28;20255;-83
2022/08/01 08:39:34;;;;;;;1.40;1.30;;;29.50;53.50;31.00;96617.00;;;;5057244;28;20593;-84
2022/08/01 08:42:02;;;;;;;1.50;1.38;;;29.60;53.10;31.10;96623.00;;;;5048451;28;20312;-83
2022/08/01 08:44:29;;;;;;;0.93;0.93;;;29.70;52.90;31.20;96620.00;;;;5046662;28;20203;-84
2022/08/01 08:47:01;;;;;;;1.45;1.35;;;29.80;52.70;31.30;96624.00;;;;5048509;28;20231;-84
2022/08/01 08:49:30;;;;;;;2.67;1.15;;;29.90;52.30;31.40;96628.00;;;;5051597;28;20202;-84
2022/08/01 08:52:01;;;;;;;1.55;1.10;;;30.00;52.10;31.60;96623.00;;;;5049127;28;20307;-83
2022/08/01 08:54:31;;;;;;;1.10;1.10;;;30.20;51.90;31.80;96619.00;;;;5049678;28;20200;-83
2022/08/01 08:57:00;;;;;;;1.15;1.05;;;30.30;51.90;31.90;96627.00;;;;5052593;28;20284;-83
2022/08/01 08:59:28;;;;;;;1.17;1.13;;;30.40;51.70;32.10;96625.00;;;;5046951;28;20308;-83
2022/08/01 09:01:57;;;;;;;1.40;1.30;;;30.60;51.90;32.30;96628.00;;;;5049939;28;20300;-83
2022/08/01 09:04:25;;;;;;;1.00;1.00;;;30.70;51.20;32.50;96621.00;;;;5049660;28;20232;-83
2022/08/01 09:06:53;;;;;;;0.93;0.90;;;30.90;51.20;32.70;96631.00;;;;5056152;28;20235;-83
2022/08/01 09:09:21;;;;;;;1.30;1.10;;;31.10;51.00;32.90;96634.00;;;;5042370;28;20674;-84
2022/08/01 09:11:48;;;;;;;1.45;1.42;;;31.20;50.20;33.00;96634.00;;;;5042573;28;20659;-84
2022/08/01 09:14:23;;;;;;;0.90;0.90;;;31.40;50.00;33.20;96629.00;;;;5042750;28;20216;-83
2022/08/01 09:17:06;;;;;;;1.35;1.25;;;31.50;49.60;33.40;96628.00;;;;5049672;28;20231;-84
2022/08/01 09:19:38;;;;;;;1.15;1.05;;;31.70;49.00;33.60;96629.00;;;;5044680;28;20200;-83
2022/08/01 09:22:09;;;;;;;0.90;0.90;;;31.80;49.40;33.80;96630.00;;;;5048745;28;20217;-84
2022/08/01 09:24:39;;;;;;;1.02;1.02;;;32.00;49.40;34.00;96632.00;;;;5049598;28;20239;-83
2022/08/01 09:27:19;;;;;;;0.98;0.90;;;32.20;48.70;34.20;96629.00;;;;5035469;28;20228;-83
2022/08/01 09:29:46;;;;;;;1.05;1.05;;;32.40;48.30;34.30;96634.00;;;;5047388;28;20638;-84
2022/08/01 09:32:14;;;;;;;1.25;1.00;;;32.50;48.50;34.50;96637.00;;;;5043649;28;20312;-83
2022/08/01 09:34:42;;;;;;;1.23;0.90;;;32.70;48.00;34.70;96634.00;;;;5048973;28;20307;-81
2022/08/01 09:37:09;;;;;;;1.05;1.05;;;32.80;47.90;34.90;96629.00;;;;5042693;28;20284;-84
2022/08/01 09:39:42;;;;;;;1.00;1.00;;;33.00;47.60;35.10;96628.00;;;;5041569;28;20683;-83
2022/08/01 09:42:28;;;;;;;1.08;1.08;;;33.20;46.70;35.30;96638.00;;;;5040912;28;20252;-83
2022/08/01 09:44:55;;;;;;;1.00;1.00;;;33.40;46.40;35.50;96637.00;;;;5030896;28;20197;-83
2022/08/01 09:47:38;;;;;;;1.42;0.80;;;33.60;47.70;35.70;96643.00;;;;5048532;28;20224;-83
2022/08/01 09:50:07;;;;;;;1.20;1.20;;;33.80;46.00;35.90;96641.00;;;;5040923;28;20649;-83
2022/08/01 09:52:34;;;;;;;1.50;1.00;;;34.00;45.90;36.00;96631.00;;;;5049245;28;20370;-83
2022/08/01 09:55:07;;;;;;;1.00;1.00;;;34.10;45.30;36.10;96631.00;;;;5054426;28;20693;-83
2022/08/01 09:57:34;;;;;;;1.25;0.90;;;34.20;45.10;36.10;96635.00;;;;5047559;28;20201;-82
2022/08/01 10:00:04;;;;;;;0.90;0.90;;;34.30;45.00;36.20;96636.00;;;;5043555;28;20303;-82
2022/08/01 10:02:35;;;;;;;1.10;1.10;;;34.40;44.40;36.20;96633.00;;;;5048624;28;20225;-83
2022/08/01 10:05:05;;;;;;;2.05;1.30;;;34.50;44.10;36.30;96633.00;;;;5043559;28;20200;-83
2022/08/01 10:07:33;;;;;;;0.80;0.80;;;34.50;44.30;36.50;96635.00;;;;5044879;28;20235;-83
2022/08/01 10:10:11;;;;;;;0.90;0.90;;;34.70;44.60;36.60;96632.00;;;;5055305;28;20272;-83
2022/08/01 10:12:41;;;;;;;0.90;0.90;;;34.80;44.50;36.70;96626.00;;;;5062838;28;20219;-83
2022/08/01 10:15:11;;;;;;;0.80;0.80;;;35.00;44.50;36.80;96627.00;;;;5057372;28;20197;-83
2022/08/01 10:17:42;;;;;;;1.60;0.80;;;35.10;43.60;36.90;96617.00;;;;5058829;28;20200;-83
2022/08/01 10:20:11;;;;;;;1.50;0.90;;;35.30;43.30;37.00;96618.00;;;;5057837;28;20283;-83
2022/08/01 10:22:40;;;;;;;0.85;0.85;;;35.40;42.90;37.00;96621.00;;;;5054934;28;20216;-83
2022/08/01 10:25:08;;;;;;;0.70;0.70;;;35.50;42.00;36.90;96616.00;;;;5052854;28;20221;-83
2022/08/01 10:27:38;;;;;;;2.10;1.15;;;35.60;42.30;36.80;96619.00;;;;5053386;28;20196;-83
2022/08/01 10:30:09;;;;;;;1.58;0.82;;;35.50;41.40;36.60;96615.00;;;;5043871;28;20246;-83
2022/08/01 10:32:38;;;;;;;1.30;1.20;;;35.50;42.10;36.60;96615.00;;;;5061851;28;20762;-81
2022/08/01 10:35:08;;;;;;;1.45;0.90;;;35.40;41.40;36.50;96614.00;;;;5063122;28;20696;-83
2022/08/01 10:37:36;;;;;;;1.00;1.00;;;35.50;42.20;36.50;96620.00;;;;5060230;28;20243;-82
2022/08/01 10:40:05;;;;;;;0.80;0.80;;;35.40;42.20;36.40;96622.00;;;;5041110;28;20216;-83
2022/08/01 10:42:35;;;;;;;0.90;0.75;;;35.40;41.70;36.50;96610.00;;;;5057224;28;20232;-83
2022/08/01 10:45:04;;;;;;;1.10;0.80;;;35.40;42.20;36.50;96608.00;;;;5052974;28;20576;-80
2022/08/01 10:47:46;;;;;;;1.05;1.00;;;35.40;41.40;36.40;96604.00;;;;5053080;28;20308;-83
2022/08/01 10:50:24;;;;;;;1.52;1.42;;;35.40;41.30;36.40;96599.00;;;;5041934;28;20272;-83
2022/08/01 10:53:14;;;;;;;0.90;0.80;;;35.50;41.60;36.40;96600.00;;;;5045786;28;20219;-83
2022/08/01 10:55:58;;;;;;;0.82;0.82;;;35.50;41.70;36.50;96600.00;;;;5035548;28;20307;-82
2022/08/01 10:58:28;;;;;;;3.75;1.10;;;35.50;41.10;36.50;96589.00;;;;5058007;28;20196;-82
2022/08/01 11:01:19;;;;;;;1.20;1.08;;;35.60;41.20;36.40;96587.00;;;;5055939;28;20197;-82
2022/08/01 11:04:10;;;;;;;0.63;0.63;;;35.60;40.60;36.30;96589.00;;;;5053472;28;20200;-83
2022/08/01 11:07:01;;;;;;;1.55;0.90;;;35.50;40.70;36.20;96589.00;;;;5043170;28;20259;-83